Terminal Aerodrome Forecast
Issued by NWS

Current Version | Previous Version | Text Only | Print | Product List | Glossary On
Versions: 1 2 3 4 5 6 7 8 9 10 11 12 13 14 15 16
000
FTUS43 KIND 171135 CCA
TAFLAF
TAF COR
KLAF 171135Z 1712/1812 19004KT P6SM BKN020
     FM171300 21007KT P6SM VCSH BKN020
     FM171800 23009KT P6SM VCSH BKN060
     FM172100 24011KT P6SM VCSH SCT060
     FM180000 24007KT P6SM FEW200
      AMD LTD TO CLD VIS AND WIND TIL 171300=

USA.gov is the U.S. government's official web portal to all federal, state and local government web resources and services.